createdAt,value
2024-03-01T00:00:27.741Z,100938.73
2024-03-01T00:02:59.086Z,100927.50
2024-03-01T00:05:30.078Z,100922.38
2024-03-01T00:07:58.907Z,100917.86
2024-03-01T00:10:26.952Z,100917.95
2024-03-01T00:12:56.339Z,100920.48
2024-03-01T00:15:24.641Z,100916.87
2024-03-01T00:17:53.441Z,100911.96
2024-03-01T00:20:23.543Z,100910.71
2024-03-01T00:22:53.981Z,100908.09
2024-03-01T00:25:22.168Z,100908.84
2024-03-01T00:27:51.485Z,100900.54
2024-03-01T00:30:20.402Z,100897.21
2024-03-01T00:32:48.593Z,100895.63
2024-03-01T00:35:17.876Z,100887.73
2024-03-01T00:37:46.924Z,100883.02
2024-03-01T00:40:15.051Z,100875.02
2024-03-01T00:42:43.106Z,100870.17
2024-03-01T00:45:11.126Z,100867.27
2024-03-01T00:47:48.834Z,100866.96
2024-03-01T00:50:17.463Z,100862.90
2024-03-01T00:52:46.839Z,100862.73
2024-03-01T00:55:15.111Z,100868.86
2024-03-01T00:57:45.304Z,100870.39
2024-03-01T01:00:14.330Z,100873.09
2024-03-01T01:02:42.871Z,100878.21
2024-03-01T01:05:12.734Z,100872.64
2024-03-01T01:07:40.664Z,100869.54
2024-03-01T01:10:10.076Z,100867.87
2024-03-01T01:12:38.552Z,100861.64
2024-03-01T01:15:14.064Z,100852.17
2024-03-01T01:17:43.185Z,100849.08
2024-03-01T01:20:13.942Z,100850.94
2024-03-01T01:22:42.489Z,100845.41
2024-03-01T01:25:11.238Z,100845.71
2024-03-01T01:27:42.232Z,100847.05
2024-03-01T01:30:11.406Z,100852.75
2024-03-01T01:32:40.253Z,100847.72
2024-03-01T01:35:08.457Z,100841.83
2024-03-01T01:37:37.983Z,100835.41
2024-03-01T01:44:08.388Z,100839.58
2024-03-01T01:46:37.310Z,100839.57
2024-03-01T01:49:06.092Z,100837.63
2024-03-01T01:51:35.963Z,100834.15
2024-03-01T01:54:04.643Z,100836.64
2024-03-01T01:56:33.207Z,100840.09
2024-03-01T01:59:01.259Z,100839.95
2024-03-01T02:01:29.409Z,100832.62
2024-03-01T02:03:59.172Z,100832.23
2024-03-01T02:06:27.148Z,100832.44
2024-03-01T02:08:56.351Z,100830.99
2024-03-01T02:11:26.270Z,100832.79
2024-03-01T02:13:55.800Z,100829.06
2024-03-01T02:16:24.471Z,100831.72
2024-03-01T02:18:53.981Z,100833.80
2024-03-01T02:21:24.437Z,100829.23
2024-03-01T02:23:52.672Z,100832.55
2024-03-01T02:26:21.195Z,100834.02
2024-03-01T02:28:50.461Z,100828.25
2024-03-01T02:31:18.804Z,100824.56
2024-03-01T02:33:48.140Z,100817.10
2024-03-01T02:36:17.329Z,100813.67
2024-03-01T02:38:45.383Z,100809.58
2024-03-01T02:41:13.707Z,100801.24
2024-03-01T02:43:42.460Z,100800.23
2024-03-01T02:46:11.387Z,100796.05
2024-03-01T02:48:39.720Z,100796.20
2024-03-01T02:51:07.740Z,100790.77
2024-03-01T02:53:35.644Z,100785.36
2024-03-01T02:56:07.628Z,100778.19
2024-03-01T02:58:35.772Z,100772.86
2024-03-01T03:01:04.050Z,100764.27
2024-03-01T03:03:33.620Z,100764.08
2024-03-01T03:06:04.638Z,100765.77
2024-03-01T03:08:35.001Z,100761.65
2024-03-01T03:11:03.536Z,100754.73
2024-03-01T03:13:31.526Z,100751.79
2024-03-01T03:15:59.767Z,100750.95
2024-03-01T03:18:28.259Z,100739.90
2024-03-01T03:20:57.885Z,100724.67
2024-03-01T03:23:27.482Z,100717.66
2024-03-01T03:25:56.428Z,100725.41
2024-03-01T03:28:24.558Z,100717.18
2024-03-01T03:30:53.766Z,100702.64
2024-03-01T03:33:21.824Z,100702.86
2024-03-01T03:35:51.349Z,100710.50
2024-03-01T03:38:20.305Z,100705.80
2024-03-01T03:40:48.336Z,100713.31
2024-03-01T03:43:16.479Z,100744.61
2024-03-01T03:45:44.484Z,100764.14
2024-03-01T03:48:13.451Z,100757.66
2024-03-01T03:54:44.095Z,100750.47
2024-03-01T03:57:12.111Z,100745.65
2024-03-01T03:59:40.192Z,100739.27
2024-03-01T04:02:10.486Z,100730.63
2024-03-01T04:04:39.355Z,100727.21
2024-03-01T04:07:07.686Z,100718.46
2024-03-01T04:09:38.165Z,100698.77
2024-03-01T04:12:07.741Z,100682.46
2024-03-01T04:14:36.493Z,100670.21
2024-03-01T04:17:06.155Z,100662.21
2024-03-01T04:19:34.605Z,100653.33
2024-03-01T04:22:04.736Z,100642.09
2024-03-01T04:24:33.641Z,100636.14
2024-03-01T04:27:02.296Z,100636.02
2024-03-01T04:29:31.300Z,100636.61
2024-03-01T04:32:01.457Z,100631.30
2024-03-01T04:34:29.415Z,100621.87
2024-03-01T04:36:59.789Z,100614.92
2024-03-01T04:39:30.694Z,100610.47
2024-03-01T04:41:59.508Z,100610.34
2024-03-01T04:44:28.882Z,100604.15
2024-03-01T04:46:57.624Z,100596.90
2024-03-01T04:49:26.507Z,100590.20
2024-03-01T04:51:55.518Z,100591.58
2024-03-01T04:54:23.750Z,100584.67
2024-03-01T04:56:52.792Z,100577.87
2024-03-01T04:59:20.721Z,100570.98
2024-03-01T05:01:48.839Z,100571.70
2024-03-01T05:04:17.032Z,100569.10
2024-03-01T05:06:47.336Z,100563.89
2024-03-01T05:09:17.120Z,100559.30
2024-03-01T05:11:45.882Z,100562.49
2024-03-01T05:14:14.136Z,100556.80
2024-03-01T05:16:42.066Z,100552.23
2024-03-01T05:19:10.761Z,100543.67
2024-03-01T05:21:40.083Z,100538.48
2024-03-01T05:24:09.280Z,100534.45
2024-03-01T05:26:37.512Z,100526.52
2024-03-01T05:29:06.154Z,100517.70
2024-03-01T05:31:47.098Z,100510.67
2024-03-01T05:34:15.989Z,100509.41
2024-03-01T05:36:48.716Z,100508.39
2024-03-01T05:39:20.044Z,100504.56
2024-03-01T05:41:49.797Z,100505.80
2024-03-01T05:44:18.153Z,100500.67
2024-03-01T05:46:46.972Z,100503.17
2024-03-01T05:49:15.961Z,100498.17
2024-03-01T05:51:45.629Z,100491.70
2024-03-01T05:54:14.467Z,100481.35
2024-03-01T05:56:43.059Z,100482.92
2024-03-01T05:59:11.819Z,100475.66
2024-03-01T06:01:40.036Z,100476.48
2024-03-01T06:04:11.867Z,100469.39
2024-03-01T06:06:40.818Z,100469.34
2024-03-01T06:09:10.553Z,100468.47
2024-03-01T06:11:40.899Z,100469.58
2024-03-01T06:14:10.290Z,100475.71
2024-03-01T06:16:38.741Z,100476.10
2024-03-01T06:19:07.560Z,100474.04
2024-03-01T06:21:36.792Z,100476.39
2024-03-01T06:24:04.910Z,100477.35
2024-03-01T06:26:34.605Z,100480.20
2024-03-01T06:29:03.261Z,100486.70
2024-03-01T06:31:32.885Z,100490.41
2024-03-01T06:34:01.278Z,100496.53
2024-03-01T06:36:29.650Z,100500.48
2024-03-01T06:38:58.245Z,100504.92
2024-03-01T06:41:29.517Z,100513.51
2024-03-01T06:43:57.666Z,100520.54
2024-03-01T06:46:25.897Z,100532.04
2024-03-01T06:48:56.670Z,100539.48
2024-03-01T06:51:24.512Z,100541.75
2024-03-01T06:53:54.314Z,100554.09
2024-03-01T06:56:25.393Z,100565.00
2024-03-01T06:58:53.993Z,100572.10
2024-03-01T07:01:23.752Z,100584.08
2024-03-01T07:03:52.112Z,100589.98
2024-03-01T07:06:22.631Z,100595.98
2024-03-01T07:08:52.227Z,100607.40
2024-03-01T07:11:23.806Z,100618.45
2024-03-01T07:13:51.922Z,100630.20
2024-03-01T07:16:24.426Z,100644.19
2024-03-01T07:18:53.145Z,100649.84
2024-03-01T07:21:21.120Z,100653.44
2024-03-01T07:23:49.146Z,100665.91
2024-03-01T07:26:17.918Z,100681.06
2024-03-01T07:28:45.907Z,100697.66
2024-03-01T07:31:16.495Z,100705.07
2024-03-01T07:33:45.259Z,100710.49
2024-03-01T07:36:15.989Z,100712.96
2024-03-01T07:38:44.580Z,100708.17
2024-03-01T07:41:13.479Z,100706.93
2024-03-01T07:43:41.519Z,100707.97
2024-03-01T07:46:09.798Z,100701.13
2024-03-01T07:48:39.042Z,100711.27
2024-03-01T07:51:08.294Z,100721.48
2024-03-01T07:53:37.611Z,100735.23
2024-03-01T07:56:06.648Z,100752.29
2024-03-01T07:58:34.813Z,100762.56
2024-03-01T08:01:06.125Z,100777.86
2024-03-01T08:03:36.753Z,100783.05
2024-03-01T08:06:04.877Z,100787.05
2024-03-01T08:08:33.947Z,100808.25
2024-03-01T08:11:02.199Z,100820.64
2024-03-01T08:13:30.499Z,100830.76
2024-03-01T08:16:00.975Z,100838.00
2024-03-01T08:18:29.945Z,100843.25
2024-03-01T08:21:07.664Z,100850.23
2024-03-01T08:23:41.354Z,100859.55
2024-03-01T08:26:18.691Z,100875.63
2024-03-01T08:28:49.309Z,100884.13
2024-03-01T08:31:37.843Z,100825.46
2024-03-01T08:34:10.660Z,100812.48
2024-03-01T08:36:39.279Z,100816.14
2024-03-01T08:39:22.859Z,100820.61
2024-03-01T08:41:53.036Z,100826.30
2024-03-01T08:44:30.649Z,100834.38
2024-03-01T08:46:58.774Z,100844.09
2024-03-01T08:49:46.365Z,100850.42
2024-03-01T08:52:36.073Z,100856.15
2024-03-01T08:55:10.603Z,100857.21
2024-03-01T08:57:39.990Z,100863.30
2024-03-01T09:00:30.326Z,100864.80
2024-03-01T09:02:58.426Z,100854.20
2024-03-01T09:05:27.487Z,100850.35
2024-03-01T09:07:59.071Z,100845.15
2024-03-01T09:10:28.970Z,100844.90
2024-03-01T09:12:57.232Z,100847.50
2024-03-01T09:15:25.607Z,100851.33
2024-03-01T09:17:54.500Z,100851.85
2024-03-01T09:20:23.393Z,100847.91
2024-03-01T09:22:51.729Z,100846.96
2024-03-01T09:25:41.626Z,100849.33
2024-03-01T09:28:10.779Z,100861.72
2024-03-01T09:30:38.862Z,100867.80
2024-03-01T09:33:12.267Z,100865.97
2024-03-01T09:35:41.912Z,100862.65
2024-03-01T09:38:10.980Z,100864.10
2024-03-01T09:40:39.438Z,100858.43
2024-03-01T09:43:26.555Z,100849.75
2024-03-01T09:46:05.484Z,100847.16
2024-03-01T09:48:49.054Z,100846.29
2024-03-01T09:51:28.755Z,100848.05
2024-03-01T09:54:06.261Z,100852.48
2024-03-01T09:56:51.111Z,100849.20
2024-03-01T09:59:32.376Z,100842.66
2024-03-01T10:02:06.241Z,100833.47
2024-03-01T10:04:41.969Z,100828.66
2024-03-01T10:07:21.275Z,100818.94
2024-03-01T10:09:58.220Z,100817.01
2024-03-01T10:12:47.842Z,100830.42
2024-03-01T10:15:35.631Z,100823.72
2024-03-01T10:18:25.089Z,100812.70
2024-03-01T10:21:05.875Z,100820.00
2024-03-01T10:23:57.461Z,100831.59
2024-03-01T10:26:26.290Z,100826.13
2024-03-01T10:29:13.446Z,100814.66
2024-03-01T10:31:47.343Z,100806.23
2024-03-01T10:34:36.346Z,100801.29
2024-03-01T10:37:07.832Z,100793.06
2024-03-01T10:39:41.284Z,100790.29
2024-03-01T10:42:13.610Z,100800.05
2024-03-01T10:44:42.812Z,100804.98
2024-03-01T10:47:19.570Z,100809.73
2024-03-01T10:50:08.365Z,100810.47
2024-03-01T10:52:39.722Z,100803.31
2024-03-01T10:55:16.267Z,100796.44
2024-03-01T10:57:49.294Z,100792.20
2024-03-01T11:00:18.904Z,100789.36
2024-03-01T11:02:56.809Z,100781.36
2024-03-01T11:05:27.499Z,100774.34
2024-03-01T11:08:18.275Z,100774.91
2024-03-01T11:10:56.962Z,100771.71
2024-03-01T11:13:27.163Z,100773.45
2024-03-01T11:15:56.334Z,100776.54
2024-03-01T11:18:25.315Z,100781.14
2024-03-01T11:20:53.742Z,100770.34
2024-03-01T11:23:23.435Z,100758.56
2024-03-01T11:25:58.136Z,100751.13
2024-03-01T11:28:29.016Z,100740.05
2024-03-01T11:31:00.036Z,100743.13
2024-03-01T11:33:28.037Z,100740.10
2024-03-01T11:36:02.997Z,100741.26
2024-03-01T11:38:31.318Z,100736.92
2024-03-01T11:41:05.686Z,100733.80
2024-03-01T11:43:34.207Z,100723.38
2024-03-01T11:46:07.897Z,100713.65
2024-03-01T11:48:45.948Z,100713.83
2024-03-01T11:51:32.807Z,100719.36
2024-03-01T11:54:07.846Z,100721.14
2024-03-01T11:56:52.120Z,100716.41
2024-03-01T11:59:29.378Z,100716.60
2024-03-01T12:02:17.819Z,100716.64
2024-03-01T12:05:04.797Z,100716.66
2024-03-01T12:07:39.287Z,100721.91
2024-03-01T12:10:28.163Z,100716.75
2024-03-01T12:12:59.103Z,100713.96
2024-03-01T12:15:27.565Z,100712.81
2024-03-01T12:18:03.383Z,100713.77
2024-03-01T12:20:32.254Z,100724.34
2024-03-01T12:23:07.467Z,100724.32
2024-03-01T12:25:37.998Z,100727.50
2024-03-01T12:28:11.735Z,100718.33
2024-03-01T12:30:41.868Z,100711.70
2024-03-01T12:33:11.730Z,100706.48
2024-03-01T12:36:02.593Z,100705.36
2024-03-01T12:38:50.156Z,100707.52
2024-03-01T12:41:21.183Z,100708.16
2024-03-01T12:47:54.637Z,100708.17
2024-03-01T12:50:38.136Z,100707.52
2024-03-01T12:53:07.193Z,100707.19
2024-03-01T12:55:44.714Z,100707.20
2024-03-01T12:58:15.055Z,100702.36
2024-03-01T13:04:53.335Z,100703.86
2024-03-01T13:07:22.143Z,100706.73
2024-03-01T13:09:54.205Z,100702.30
2024-03-01T13:12:26.670Z,100697.25
2024-03-01T13:15:14.959Z,100694.70
2024-03-01T13:18:08.467Z,100694.77
2024-03-01T13:20:45.428Z,100703.77
2024-03-01T13:23:15.561Z,100703.41
2024-03-01T13:26:07.368Z,100698.81
2024-03-01T13:28:35.960Z,100691.86
2024-03-01T13:31:08.881Z,100695.07
2024-03-01T13:33:49.946Z,100700.71
2024-03-01T13:36:27.617Z,100699.63
2024-03-01T13:39:12.089Z,100691.52
2024-03-01T13:41:40.713Z,100689.64
2024-03-01T13:44:23.376Z,100693.98
2024-03-01T13:47:12.602Z,100693.42
2024-03-01T13:49:41.810Z,100689.89
2024-03-01T13:52:10.252Z,100692.64
2024-03-01T13:54:38.729Z,100693.20
2024-03-01T13:57:07.449Z,100695.09
2024-03-01T13:59:37.298Z,100680.61
2024-03-01T14:02:05.620Z,100679.55
2024-03-01T14:04:34.265Z,100676.90
2024-03-01T14:07:04.775Z,100683.23
2024-03-01T14:09:33.264Z,100685.90
2024-03-01T14:12:01.423Z,100687.73
2024-03-01T14:14:29.731Z,100694.07
2024-03-01T14:16:59.773Z,100691.41
2024-03-01T14:19:28.953Z,100687.15
2024-03-01T14:21:57.243Z,100685.63
2024-03-01T14:24:25.568Z,100687.82
2024-03-01T14:26:55.975Z,100689.16
2024-03-01T14:29:25.029Z,100696.54
2024-03-01T14:32:08.091Z,100700.86
2024-03-01T14:34:40.331Z,100705.22
2024-03-01T14:37:11.784Z,100707.12
2024-03-01T14:39:41.778Z,100701.48
2024-03-01T14:42:17.347Z,100704.52
2024-03-01T14:44:46.126Z,100698.61
2024-03-01T14:47:15.205Z,100693.31
2024-03-01T14:49:46.404Z,100693.21
2024-03-01T14:52:14.509Z,100694.59
2024-03-01T14:54:44.895Z,100699.59
2024-03-01T14:57:17.148Z,100701.60
2024-03-01T14:59:45.902Z,100712.53
2024-03-01T15:02:13.962Z,100716.83
2024-03-01T15:04:44.543Z,100715.36
2024-03-01T15:07:12.750Z,100722.29
2024-03-01T15:09:44.736Z,100723.02
2024-03-01T15:12:14.422Z,100724.79
2024-03-01T15:14:42.911Z,100727.05
2024-03-01T15:17:13.376Z,100729.00
2024-03-01T15:19:41.910Z,100726.83
2024-03-01T15:22:13.523Z,100728.88
2024-03-01T15:24:41.838Z,100727.13
2024-03-01T15:27:10.999Z,100728.86
2024-03-01T15:29:40.010Z,100736.27
2024-03-01T15:32:08.040Z,100745.56
2024-03-01T15:34:36.226Z,100756.52
2024-03-01T15:37:05.161Z,100763.36
2024-03-01T15:39:33.510Z,100757.60
2024-03-01T15:42:01.574Z,100752.32
2024-03-01T15:44:32.012Z,100751.33
2024-03-01T15:47:00.107Z,100752.08
2024-03-01T15:49:28.965Z,100754.98
2024-03-01T15:51:57.019Z,100753.88
2024-03-01T15:54:25.168Z,100751.52
2024-03-01T15:56:55.316Z,100749.36
2024-03-01T15:59:26.496Z,100749.58
2024-03-01T16:01:54.943Z,100748.02
2024-03-01T16:04:28.189Z,100743.50
2024-03-01T16:07:01.027Z,100741.55
2024-03-01T16:09:32.688Z,100739.33
2024-03-01T16:12:00.851Z,100739.59
2024-03-01T16:14:29.889Z,100738.96
2024-03-01T16:16:58.284Z,100743.94
2024-03-01T16:19:27.982Z,100738.55
2024-03-01T16:21:56.307Z,100737.30
2024-03-01T16:24:25.389Z,100735.46
2024-03-01T16:26:54.069Z,100744.67
2024-03-01T16:29:22.163Z,100753.38
2024-03-01T16:31:50.362Z,100754.52
2024-03-01T16:34:20.558Z,100748.06
2024-03-01T16:36:48.757Z,100746.02
2024-03-01T16:39:37.240Z,100744.52
2024-03-01T16:42:06.151Z,100751.30
2024-03-01T16:44:43.384Z,100750.53
2024-03-01T16:47:14.397Z,100744.86
2024-03-01T16:49:44.618Z,100739.73
2024-03-01T16:52:19.164Z,100740.68
2024-03-01T16:54:49.289Z,100740.95
2024-03-01T16:57:27.618Z,100735.25
2024-03-01T16:59:55.818Z,100735.95
2024-03-01T17:02:38.738Z,100737.30
2024-03-01T17:05:12.274Z,100738.74
2024-03-01T17:07:43.477Z,100746.60
2024-03-01T17:10:30.746Z,100753.47
2024-03-01T17:13:01.338Z,100748.29
2024-03-01T17:15:30.587Z,100743.39
2024-03-01T17:17:58.859Z,100743.48
2024-03-01T17:20:26.974Z,100743.50
2024-03-01T17:22:57.326Z,100741.86
2024-03-01T17:25:26.120Z,100744.48
2024-03-01T17:27:54.299Z,100745.92
2024-03-01T17:30:22.515Z,100743.98
2024-03-01T17:32:50.710Z,100738.83
2024-03-01T17:35:24.454Z,100743.80
2024-03-01T17:37:53.742Z,100746.20
2024-03-01T17:40:22.294Z,100738.57
2024-03-01T17:42:52.078Z,100738.25
2024-03-01T17:45:20.709Z,100740.57
2024-03-01T17:47:52.170Z,100740.47
2024-03-01T17:50:21.609Z,100744.00
2024-03-01T17:52:51.826Z,100745.39
2024-03-01T17:55:19.740Z,100751.20
2024-03-01T17:57:48.880Z,100750.23
2024-03-01T18:00:17.179Z,100744.42
2024-03-01T18:02:45.286Z,100737.73
2024-03-01T18:05:14.415Z,100732.84
2024-03-01T18:07:42.592Z,100731.23
2024-03-01T18:10:14.867Z,100731.34
2024-03-01T18:12:43.142Z,100726.27
2024-03-01T18:15:12.034Z,100718.27
2024-03-01T18:17:40.342Z,100714.16
2024-03-01T18:20:08.749Z,100701.34
2024-03-01T18:22:37.906Z,100692.11
2024-03-01T18:25:09.365Z,100695.35
2024-03-01T18:27:37.294Z,100695.35
2024-03-01T18:30:05.644Z,100697.80
2024-03-01T18:32:34.308Z,100700.19
2024-03-01T18:35:03.257Z,100702.27
2024-03-01T18:37:31.352Z,100699.63
2024-03-01T18:39:59.935Z,100696.13
2024-03-01T18:42:29.352Z,100691.62
2024-03-01T18:44:57.791Z,100691.43
2024-03-01T18:47:26.081Z,100687.39
2024-03-01T18:49:55.252Z,100689.08
2024-03-01T18:52:26.362Z,100690.44
2024-03-01T18:54:54.656Z,100686.59
2024-03-01T18:57:23.796Z,100689.33
2024-03-01T18:59:53.341Z,100691.03
2024-03-01T19:02:28.312Z,100682.06
2024-03-01T19:05:00.756Z,100683.36
2024-03-01T19:07:29.790Z,100673.38
2024-03-01T19:09:57.906Z,100674.13
2024-03-01T19:12:26.861Z,100667.67
2024-03-01T19:14:55.425Z,100660.30
2024-03-01T19:17:24.541Z,100657.41
2024-03-01T19:19:52.861Z,100647.17
2024-03-01T19:22:20.969Z,100641.80
2024-03-01T19:24:51.036Z,100640.30
2024-03-01T19:27:22.628Z,100635.38
2024-03-01T19:29:51.046Z,100633.73
2024-03-01T19:32:19.040Z,100631.27
2024-03-01T19:34:48.983Z,100631.73
2024-03-01T19:37:17.978Z,100631.44
2024-03-01T19:39:46.555Z,100623.36
2024-03-01T19:42:15.321Z,100622.71
2024-03-01T19:44:44.077Z,100620.09
2024-03-01T19:47:14.433Z,100623.10
2024-03-01T19:49:43.098Z,100620.90
2024-03-01T19:52:13.417Z,100617.84
2024-03-01T19:54:42.398Z,100614.86
2024-03-01T19:57:10.508Z,100612.91
2024-03-01T19:59:40.793Z,100609.28
2024-03-01T20:02:09.187Z,100606.28
2024-03-01T20:04:40.521Z,100604.55
2024-03-01T20:07:09.167Z,100601.61
2024-03-01T20:09:40.169Z,100597.88
2024-03-01T20:12:08.128Z,100598.73
2024-03-01T20:14:36.366Z,100602.27
2024-03-01T20:17:05.123Z,100597.23
2024-03-01T20:19:33.092Z,100595.02
2024-03-01T20:22:02.163Z,100595.48
2024-03-01T20:24:30.512Z,100591.85
2024-03-01T20:26:58.777Z,100589.56
2024-03-01T20:29:27.515Z,100583.48
2024-03-01T20:31:55.616Z,100577.41
2024-03-01T20:34:26.135Z,100572.20
2024-03-01T20:36:55.015Z,100576.88
2024-03-01T20:39:23.439Z,100579.65
2024-03-01T20:41:51.547Z,100577.55
2024-03-01T20:44:19.619Z,100565.77
2024-03-01T20:46:47.727Z,100562.95
2024-03-01T20:49:15.986Z,100555.61
2024-03-01T20:51:47.309Z,100545.63
2024-03-01T20:54:16.288Z,100541.61
2024-03-01T20:56:45.180Z,100541.16
2024-03-01T20:59:13.410Z,100534.23
2024-03-01T21:01:42.119Z,100533.46
2024-03-01T21:04:11.511Z,100530.01
2024-03-01T21:06:39.889Z,100526.59
2024-03-01T21:09:11.678Z,100523.37
2024-03-01T21:11:40.706Z,100519.65
2024-03-01T21:14:09.394Z,100517.47
2024-03-01T21:16:38.566Z,100522.67
2024-03-01T21:19:07.215Z,100518.52
2024-03-01T21:24:08.353Z,100498.73
2024-03-01T21:26:36.548Z,100491.92
2024-03-01T21:29:04.948Z,100493.25
2024-03-01T21:31:34.492Z,100485.33
2024-03-01T21:34:03.460Z,100481.52
2024-03-01T21:36:32.475Z,100482.42
2024-03-01T21:39:00.583Z,100481.27
2024-03-01T21:41:29.070Z,100482.66
2024-03-01T21:43:57.080Z,100478.06
2024-03-01T21:46:25.334Z,100475.96
2024-03-01T21:48:54.494Z,100472.73
2024-03-01T21:51:23.568Z,100476.52
2024-03-01T21:53:52.388Z,100477.23
2024-03-01T21:56:20.883Z,100474.94
2024-03-01T21:58:48.992Z,100470.93
2024-03-01T22:01:17.123Z,100465.66
2024-03-01T22:03:47.451Z,100464.98
2024-03-01T22:06:16.327Z,100472.14
2024-03-01T22:08:44.310Z,100476.48
2024-03-01T22:11:12.648Z,100471.24
2024-03-01T22:13:40.648Z,100463.76
2024-03-01T22:16:08.721Z,100464.52
2024-03-01T22:18:36.888Z,100461.92
2024-03-01T22:21:05.732Z,100462.73
2024-03-01T22:23:34.990Z,100465.23
2024-03-01T22:26:03.724Z,100461.77
2024-03-01T22:28:31.956Z,100459.39
2024-03-01T22:31:01.232Z,100457.32
2024-03-01T22:33:29.733Z,100463.20
2024-03-01T22:35:58.024Z,100485.96
2024-03-01T22:38:26.788Z,100500.91
2024-03-01T22:40:56.289Z,100491.80
2024-03-01T22:43:26.116Z,100492.10
2024-03-01T22:45:55.047Z,100495.66
2024-03-01T22:48:23.517Z,100497.08
2024-03-01T22:50:51.718Z,100502.39
2024-03-01T22:53:28.217Z,100496.63
2024-03-01T22:55:57.733Z,100497.96
2024-03-01T22:58:38.211Z,100502.33
2024-03-01T23:01:11.223Z,100503.46
2024-03-01T23:03:41.880Z,100501.99
2024-03-01T23:06:12.162Z,100492.30
2024-03-01T23:08:42.376Z,100491.61
2024-03-01T23:11:14.666Z,100487.59
2024-03-01T23:13:43.763Z,100481.15
2024-03-01T23:16:12.418Z,100474.79
2024-03-01T23:18:40.673Z,100475.00
2024-03-01T23:21:09.840Z,100477.23
2024-03-01T23:23:38.958Z,100476.34
2024-03-01T23:26:07.444Z,100472.10
2024-03-01T23:28:36.730Z,100469.43
2024-03-01T23:31:07.102Z,100470.77
2024-03-01T23:33:35.926Z,100468.20
2024-03-01T23:36:03.952Z,100467.55
2024-03-01T23:38:32.159Z,100456.20
2024-03-01T23:41:00.996Z,100453.41
2024-03-01T23:43:29.102Z,100448.28
2024-03-01T23:45:57.981Z,100443.18
2024-03-01T23:48:27.666Z,100431.42
2024-03-01T23:50:58.376Z,100426.55
2024-03-01T23:53:27.977Z,100419.06
2024-03-01T23:55:56.711Z,100416.89
2024-03-01T23:58:24.827Z,100411.86
